sensor_id;sensor_type;location;lat;lon;timestamp;P1;durP1;ratioP1;P2;durP2;ratioP2
55090;SDS011;40985;53.180;5.800;2022-10-22T00:02:23;12.13;;;8.90;;
55090;SDS011;40985;53.180;5.800;2022-10-22T00:04:49;9.70;;;7.60;;
55090;SDS011;40985;53.180;5.800;2022-10-22T00:07:18;8.77;;;6.97;;
55090;SDS011;40985;53.180;5.800;2022-10-22T00:09:45;14.70;;;9.32;;
55090;SDS011;40985;53.180;5.800;2022-10-22T00:12:11;10.77;;;8.20;;
55090;SDS011;40985;53.180;5.800;2022-10-22T00:14:38;12.70;;;8.95;;
55090;SDS011;40985;53.180;5.800;2022-10-22T00:17:04;14.52;;;9.10;;
55090;SDS011;40985;53.180;5.800;2022-10-22T00:19:29;13.20;;;8.98;;
55090;SDS011;40985;53.180;5.800;2022-10-22T00:21:55;12.30;;;8.15;;
55090;SDS011;40985;53.180;5.800;2022-10-22T00:24:22;11.52;;;8.25;;
55090;SDS011;40985;53.180;5.800;2022-10-22T00:26:48;9.13;;;7.68;;
55090;SDS011;40985;53.180;5.800;2022-10-22T00:29:14;13.50;;;10.13;;
55090;SDS011;40985;53.180;5.800;2022-10-22T00:31:42;13.30;;;9.70;;
55090;SDS011;40985;53.180;5.800;2022-10-22T00:34:14;9.45;;;8.45;;
55090;SDS011;40985;53.180;5.800;2022-10-22T00:36:41;19.77;;;9.60;;
55090;SDS011;40985;53.180;5.800;2022-10-22T00:39:07;10.02;;;8.82;;
55090;SDS011;40985;53.180;5.800;2022-10-22T00:41:32;10.82;;;8.45;;
55090;SDS011;40985;53.180;5.800;2022-10-22T00:43:59;10.45;;;8.60;;
55090;SDS011;40985;53.180;5.800;2022-10-22T00:46:28;13.07;;;8.15;;
55090;SDS011;40985;53.180;5.800;2022-10-22T00:48:54;11.13;;;8.77;;
55090;SDS011;40985;53.180;5.800;2022-10-22T00:51:23;15.88;;;9.05;;
55090;SDS011;40985;53.180;5.800;2022-10-22T00:53:53;13.88;;;8.82;;
55090;SDS011;40985;53.180;5.800;2022-10-22T00:56:22;12.73;;;9.32;;
55090;SDS011;40985;53.180;5.800;2022-10-22T00:58:49;12.10;;;9.45;;
55090;SDS011;40985;53.180;5.800;2022-10-22T01:01:20;16.20;;;8.10;;
55090;SDS011;40985;53.180;5.800;2022-10-22T01:03:49;18.02;;;10.48;;
55090;SDS011;40985;53.180;5.800;2022-10-22T01:06:21;19.15;;;10.68;;
55090;SDS011;40985;53.180;5.800;2022-10-22T01:09:08;9.77;;;7.95;;
55090;SDS011;40985;53.180;5.800;2022-10-22T01:14:23;13.43;;;8.95;;
55090;SDS011;40985;53.180;5.800;2022-10-22T01:17:02;8.63;;;7.07;;
55090;SDS011;40985;53.180;5.800;2022-10-22T01:22:46;11.80;;;8.70;;
55090;SDS011;40985;53.180;5.800;2022-10-22T01:25:37;9.43;;;8.45;;
55090;SDS011;40985;53.180;5.800;2022-10-22T01:31:16;15.57;;;10.13;;
55090;SDS011;40985;53.180;5.800;2022-10-22T01:33:44;18.58;;;10.68;;
55090;SDS011;40985;53.180;5.800;2022-10-22T01:36:11;18.10;;;11.57;;
55090;SDS011;40985;53.180;5.800;2022-10-22T01:38:39;20.80;;;13.10;;
55090;SDS011;40985;53.180;5.800;2022-10-22T01:41:06;23.45;;;11.55;;
55090;SDS011;40985;53.180;5.800;2022-10-22T01:43:33;20.55;;;11.70;;
55090;SDS011;40985;53.180;5.800;2022-10-22T01:45:59;16.75;;;11.40;;
55090;SDS011;40985;53.180;5.800;2022-10-22T01:54:01;22.17;;;11.27;;
55090;SDS011;40985;53.180;5.800;2022-10-22T01:56:39;21.00;;;12.50;;
55090;SDS011;40985;53.180;5.800;2022-10-22T02:02:05;19.85;;;12.68;;
55090;SDS011;40985;53.180;5.800;2022-10-22T02:04:43;18.85;;;11.82;;
55090;SDS011;40985;53.180;5.800;2022-10-22T02:07:14;19.90;;;12.38;;
55090;SDS011;40985;53.180;5.800;2022-10-22T02:09:43;23.00;;;13.30;;
55090;SDS011;40985;53.180;5.800;2022-10-22T02:12:09;20.00;;;13.15;;
55090;SDS011;40985;53.180;5.800;2022-10-22T02:14:36;23.08;;;12.95;;
55090;SDS011;40985;53.180;5.800;2022-10-22T02:17:05;20.00;;;12.90;;
55090;SDS011;40985;53.180;5.800;2022-10-22T02:19:49;19.08;;;12.85;;
55090;SDS011;40985;53.180;5.800;2022-10-22T02:22:19;28.13;;;13.75;;
55090;SDS011;40985;53.180;5.800;2022-10-22T02:24:45;21.80;;;12.73;;
55090;SDS011;40985;53.180;5.800;2022-10-22T02:27:20;19.77;;;12.40;;
55090;SDS011;40985;53.180;5.800;2022-10-22T02:35:22;16.10;;;11.85;;
55090;SDS011;40985;53.180;5.800;2022-10-22T02:37:50;23.08;;;12.95;;
55090;SDS011;40985;53.180;5.800;2022-10-22T02:40:17;22.13;;;13.50;;
55090;SDS011;40985;53.180;5.800;2022-10-22T02:42:45;21.33;;;12.32;;
55090;SDS011;40985;53.180;5.800;2022-10-22T02:45:12;18.40;;;12.02;;
55090;SDS011;40985;53.180;5.800;2022-10-22T02:47:38;22.38;;;12.45;;
55090;SDS011;40985;53.180;5.800;2022-10-22T02:50:04;18.83;;;12.23;;
55090;SDS011;40985;53.180;5.800;2022-10-22T02:52:30;19.88;;;12.55;;
55090;SDS011;40985;53.180;5.800;2022-10-22T02:54:56;20.35;;;11.95;;
55090;SDS011;40985;53.180;5.800;2022-10-22T02:57:21;17.83;;;11.10;;
55090;SDS011;40985;53.180;5.800;2022-10-22T02:59:47;16.45;;;11.70;;
55090;SDS011;40985;53.180;5.800;2022-10-22T03:02:13;19.23;;;10.60;;
55090;SDS011;40985;53.180;5.800;2022-10-22T03:04:38;15.20;;;11.88;;
55090;SDS011;40985;53.180;5.800;2022-10-22T03:07:04;16.20;;;10.70;;
55090;SDS011;40985;53.180;5.800;2022-10-22T03:09:30;20.42;;;10.75;;
55090;SDS011;40985;53.180;5.800;2022-10-22T03:11:55;20.42;;;11.18;;
55090;SDS011;40985;53.180;5.800;2022-10-22T03:14:21;22.48;;;11.18;;
55090;SDS011;40985;53.180;5.800;2022-10-22T03:16:46;18.65;;;9.75;;
55090;SDS011;40985;53.180;5.800;2022-10-22T03:19:12;19.30;;;11.32;;
55090;SDS011;40985;53.180;5.800;2022-10-22T03:21:58;17.83;;;11.68;;
55090;SDS011;40985;53.180;5.800;2022-10-22T03:24:33;15.05;;;10.13;;
55090;SDS011;40985;53.180;5.800;2022-10-22T03:27:03;18.67;;;9.95;;
55090;SDS011;40985;53.180;5.800;2022-10-22T03:29:29;17.60;;;10.77;;
55090;SDS011;40985;53.180;5.800;2022-10-22T03:31:57;17.75;;;10.77;;
55090;SDS011;40985;53.180;5.800;2022-10-22T03:34:23;20.65;;;10.48;;
55090;SDS011;40985;53.180;5.800;2022-10-22T03:36:49;18.52;;;10.70;;
55090;SDS011;40985;53.180;5.800;2022-10-22T03:39:16;21.40;;;10.02;;
55090;SDS011;40985;53.180;5.800;2022-10-22T03:41:43;17.15;;;10.05;;
55090;SDS011;40985;53.180;5.800;2022-10-22T03:44:10;13.38;;;9.15;;
55090;SDS011;40985;53.180;5.800;2022-10-22T03:46:36;16.23;;;9.00;;
55090;SDS011;40985;53.180;5.800;2022-10-22T03:49:02;15.50;;;8.98;;
55090;SDS011;40985;53.180;5.800;2022-10-22T03:51:28;15.05;;;8.57;;
55090;SDS011;40985;53.180;5.800;2022-10-22T03:53:54;14.55;;;8.85;;
55090;SDS011;40985;53.180;5.800;2022-10-22T03:56:20;16.45;;;8.65;;
55090;SDS011;40985;53.180;5.800;2022-10-22T03:58:45;16.00;;;8.48;;
55090;SDS011;40985;53.180;5.800;2022-10-22T04:01:12;14.75;;;8.50;;
55090;SDS011;40985;53.180;5.800;2022-10-22T04:03:38;17.92;;;9.18;;
55090;SDS011;40985;53.180;5.800;2022-10-22T04:06:08;13.70;;;7.75;;
55090;SDS011;40985;53.180;5.800;2022-10-22T04:08:37;20.77;;;8.63;;
55090;SDS011;40985;53.180;5.800;2022-10-22T04:11:03;15.52;;;8.68;;
55090;SDS011;40985;53.180;5.800;2022-10-22T04:13:29;12.20;;;7.68;;
55090;SDS011;40985;53.180;5.800;2022-10-22T04:15:55;16.27;;;7.50;;
55090;SDS011;40985;53.180;5.800;2022-10-22T04:18:41;12.57;;;7.78;;
55090;SDS011;40985;53.180;5.800;2022-10-22T04:21:08;13.60;;;7.07;;
55090;SDS011;40985;53.180;5.800;2022-10-22T04:23:35;13.18;;;7.35;;
55090;SDS011;40985;53.180;5.800;2022-10-22T04:26:01;12.48;;;7.13;;
55090;SDS011;40985;53.180;5.800;2022-10-22T04:28:29;14.60;;;7.00;;
55090;SDS011;40985;53.180;5.800;2022-10-22T04:30:55;14.32;;;8.73;;
55090;SDS011;40985;53.180;5.800;2022-10-22T04:33:21;14.27;;;7.75;;
55090;SDS011;40985;53.180;5.800;2022-10-22T04:35:47;15.18;;;7.78;;
55090;SDS011;40985;53.180;5.800;2022-10-22T04:38:12;12.60;;;7.70;;
55090;SDS011;40985;53.180;5.800;2022-10-22T04:40:38;12.52;;;7.00;;
55090;SDS011;40985;53.180;5.800;2022-10-22T04:43:04;14.07;;;7.05;;
55090;SDS011;40985;53.180;5.800;2022-10-22T04:45:31;15.02;;;7.20;;
55090;SDS011;40985;53.180;5.800;2022-10-22T04:47:57;16.92;;;6.78;;
55090;SDS011;40985;53.180;5.800;2022-10-22T04:50:23;15.73;;;6.97;;
55090;SDS011;40985;53.180;5.800;2022-10-22T04:52:49;13.38;;;6.45;;
55090;SDS011;40985;53.180;5.800;2022-10-22T04:55:14;14.07;;;7.50;;
55090;SDS011;40985;53.180;5.800;2022-10-22T04:57:40;14.02;;;6.93;;
55090;SDS011;40985;53.180;5.800;2022-10-22T05:00:06;14.10;;;5.88;;
55090;SDS011;40985;53.180;5.800;2022-10-22T05:02:32;14.38;;;6.72;;
55090;SDS011;40985;53.180;5.800;2022-10-22T05:04:58;17.98;;;7.32;;
55090;SDS011;40985;53.180;5.800;2022-10-22T05:07:24;11.32;;;7.15;;
55090;SDS011;40985;53.180;5.800;2022-10-22T05:09:49;13.30;;;6.57;;
55090;SDS011;40985;53.180;5.800;2022-10-22T05:12:15;15.93;;;6.70;;
55090;SDS011;40985;53.180;5.800;2022-10-22T05:14:41;13.60;;;7.15;;
55090;SDS011;40985;53.180;5.800;2022-10-22T05:17:06;15.95;;;6.85;;
55090;SDS011;40985;53.180;5.800;2022-10-22T05:19:32;17.65;;;7.53;;
55090;SDS011;40985;53.180;5.800;2022-10-22T05:21:59;19.30;;;7.40;;
55090;SDS011;40985;53.180;5.800;2022-10-22T05:24:27;15.23;;;6.90;;
55090;SDS011;40985;53.180;5.800;2022-10-22T05:26:54;14.23;;;7.10;;
55090;SDS011;40985;53.180;5.800;2022-10-22T05:29:21;13.63;;;6.43;;
55090;SDS011;40985;53.180;5.800;2022-10-22T05:31:47;10.45;;;6.47;;
55090;SDS011;40985;53.180;5.800;2022-10-22T05:34:13;13.05;;;5.90;;
55090;SDS011;40985;53.180;5.800;2022-10-22T05:36:39;15.35;;;6.80;;
55090;SDS011;40985;53.180;5.800;2022-10-22T05:39:05;16.45;;;6.65;;
55090;SDS011;40985;53.180;5.800;2022-10-22T05:41:31;12.63;;;6.43;;
55090;SDS011;40985;53.180;5.800;2022-10-22T05:43:59;15.13;;;5.88;;
55090;SDS011;40985;53.180;5.800;2022-10-22T05:46:26;14.45;;;6.82;;
55090;SDS011;40985;53.180;5.800;2022-10-22T05:48:57;10.70;;;6.57;;
55090;SDS011;40985;53.180;5.800;2022-10-22T05:51:25;17.02;;;7.78;;
55090;SDS011;40985;53.180;5.800;2022-10-22T05:53:53;17.17;;;6.97;;
55090;SDS011;40985;53.180;5.800;2022-10-22T05:56:21;11.88;;;5.90;;
55090;SDS011;40985;53.180;5.800;2022-10-22T05:58:47;15.27;;;7.32;;
55090;SDS011;40985;53.180;5.800;2022-10-22T06:01:15;15.52;;;6.97;;
55090;SDS011;40985;53.180;5.800;2022-10-22T06:03:55;17.70;;;7.13;;
55090;SDS011;40985;53.180;5.800;2022-10-22T06:09:23;13.38;;;6.90;;
55090;SDS011;40985;53.180;5.800;2022-10-22T06:11:52;17.48;;;7.65;;
55090;SDS011;40985;53.180;5.800;2022-10-22T06:14:18;12.98;;;6.43;;
55090;SDS011;40985;53.180;5.800;2022-10-22T06:16:44;17.42;;;7.32;;
55090;SDS011;40985;53.180;5.800;2022-10-22T06:19:10;16.00;;;7.32;;
55090;SDS011;40985;53.180;5.800;2022-10-22T06:21:37;18.30;;;6.70;;
55090;SDS011;40985;53.180;5.800;2022-10-22T06:24:03;11.95;;;6.55;;
55090;SDS011;40985;53.180;5.800;2022-10-22T06:26:29;13.50;;;6.97;;
55090;SDS011;40985;53.180;5.800;2022-10-22T06:28:55;17.38;;;7.43;;
55090;SDS011;40985;53.180;5.800;2022-10-22T06:31:22;15.40;;;7.18;;
55090;SDS011;40985;53.180;5.800;2022-10-22T06:33:48;22.98;;;7.80;;
55090;SDS011;40985;53.180;5.800;2022-10-22T06:36:14;15.27;;;6.90;;
55090;SDS011;40985;53.180;5.800;2022-10-22T06:38:42;21.27;;;7.10;;
55090;SDS011;40985;53.180;5.800;2022-10-22T06:41:09;17.85;;;6.88;;
55090;SDS011;40985;53.180;5.800;2022-10-22T06:43:37;14.95;;;5.85;;
55090;SDS011;40985;53.180;5.800;2022-10-22T06:46:04;12.38;;;5.90;;
55090;SDS011;40985;53.180;5.800;2022-10-22T06:48:33;12.80;;;6.05;;
55090;SDS011;40985;53.180;5.800;2022-10-22T06:51:01;14.52;;;6.60;;
55090;SDS011;40985;53.180;5.800;2022-10-22T06:53:32;17.33;;;6.63;;
55090;SDS011;40985;53.180;5.800;2022-10-22T06:55:58;15.00;;;6.90;;
55090;SDS011;40985;53.180;5.800;2022-10-22T06:58:23;15.18;;;6.60;;
55090;SDS011;40985;53.180;5.800;2022-10-22T07:00:49;20.13;;;7.53;;
55090;SDS011;40985;53.180;5.800;2022-10-22T07:03:35;12.85;;;6.03;;
55090;SDS011;40985;53.180;5.800;2022-10-22T07:06:02;15.30;;;6.07;;
55090;SDS011;40985;53.180;5.800;2022-10-22T07:08:29;11.13;;;5.80;;
55090;SDS011;40985;53.180;5.800;2022-10-22T07:10:55;15.35;;;6.13;;
55090;SDS011;40985;53.180;5.800;2022-10-22T07:13:28;16.52;;;6.38;;
55090;SDS011;40985;53.180;5.800;2022-10-22T07:15:54;8.73;;;5.40;;
55090;SDS011;40985;53.180;5.800;2022-10-22T07:18:20;10.63;;;5.60;;
55090;SDS011;40985;53.180;5.800;2022-10-22T07:20:47;12.85;;;5.25;;
55090;SDS011;40985;53.180;5.800;2022-10-22T07:23:13;14.43;;;5.32;;
55090;SDS011;40985;53.180;5.800;2022-10-22T07:25:39;13.65;;;5.43;;
55090;SDS011;40985;53.180;5.800;2022-10-22T07:28:05;12.18;;;4.82;;
55090;SDS011;40985;53.180;5.800;2022-10-22T07:30:31;17.90;;;6.43;;
55090;SDS011;40985;53.180;5.800;2022-10-22T07:32:57;15.30;;;5.20;;
55090;SDS011;40985;53.180;5.800;2022-10-22T07:35:22;13.98;;;4.60;;
55090;SDS011;40985;53.180;5.800;2022-10-22T07:37:48;16.23;;;4.57;;
55090;SDS011;40985;53.180;5.800;2022-10-22T07:40:13;19.38;;;4.97;;
55090;SDS011;40985;53.180;5.800;2022-10-22T07:42:39;13.68;;;4.95;;
55090;SDS011;40985;53.180;5.800;2022-10-22T07:45:05;14.43;;;4.57;;
55090;SDS011;40985;53.180;5.800;2022-10-22T07:47:32;13.48;;;4.55;;
55090;SDS011;40985;53.180;5.800;2022-10-22T07:49:57;11.93;;;4.07;;
55090;SDS011;40985;53.180;5.800;2022-10-22T07:52:23;10.73;;;3.97;;
55090;SDS011;40985;53.180;5.800;2022-10-22T07:54:49;11.75;;;4.45;;
55090;SDS011;40985;53.180;5.800;2022-10-22T07:57:14;12.18;;;4.50;;
55090;SDS011;40985;53.180;5.800;2022-10-22T07:59:40;14.75;;;5.00;;
55090;SDS011;40985;53.180;5.800;2022-10-22T08:02:06;13.50;;;3.92;;
55090;SDS011;40985;53.180;5.800;2022-10-22T08:04:31;10.52;;;3.95;;
55090;SDS011;40985;53.180;5.800;2022-10-22T08:06:57;9.32;;;3.70;;
55090;SDS011;40985;53.180;5.800;2022-10-22T08:09:24;17.50;;;4.30;;
55090;SDS011;40985;53.180;5.800;2022-10-22T08:11:50;13.57;;;5.22;;
55090;SDS011;40985;53.180;5.800;2022-10-22T08:14:15;11.98;;;3.92;;
55090;SDS011;40985;53.180;5.800;2022-10-22T08:16:41;12.43;;;3.88;;
55090;SDS011;40985;53.180;5.800;2022-10-22T08:19:07;14.20;;;4.13;;
55090;SDS011;40985;53.180;5.800;2022-10-22T08:21:32;11.98;;;3.90;;
55090;SDS011;40985;53.180;5.800;2022-10-22T08:23:58;11.15;;;3.25;;
55090;SDS011;40985;53.180;5.800;2022-10-22T08:26:24;16.10;;;3.03;;
55090;SDS011;40985;53.180;5.800;2022-10-22T08:28:49;8.73;;;3.08;;
55090;SDS011;40985;53.180;5.800;2022-10-22T08:31:15;8.77;;;3.03;;
55090;SDS011;40985;53.180;5.800;2022-10-22T08:33:40;13.05;;;2.70;;
55090;SDS011;40985;53.180;5.800;2022-10-22T08:36:07;10.25;;;2.30;;
55090;SDS011;40985;53.180;5.800;2022-10-22T08:38:33;9.73;;;2.20;;
55090;SDS011;40985;53.180;5.800;2022-10-22T08:41:07;10.15;;;2.28;;
55090;SDS011;40985;53.180;5.800;2022-10-22T08:43:44;11.65;;;2.10;;
55090;SDS011;40985;53.180;5.800;2022-10-22T08:49:19;17.48;;;3.03;;
55090;SDS011;40985;53.180;5.800;2022-10-22T08:51:50;10.95;;;1.95;;
55090;SDS011;40985;53.180;5.800;2022-10-22T09:02:21;11.10;;;1.83;;
55090;SDS011;40985;53.180;5.800;2022-10-22T09:04:49;10.07;;;2.08;;
55090;SDS011;40985;53.180;5.800;2022-10-22T09:07:24;9.88;;;1.60;;
55090;SDS011;40985;53.180;5.800;2022-10-22T09:09:49;12.75;;;1.35;;
55090;SDS011;40985;53.180;5.800;2022-10-22T09:12:18;9.73;;;1.33;;
55090;SDS011;40985;53.180;5.800;2022-10-22T09:14:47;7.63;;;1.20;;
55090;SDS011;40985;53.180;5.800;2022-10-22T09:20:15;12.57;;;2.00;;
55090;SDS011;40985;53.180;5.800;2022-10-22T09:25:26;8.50;;;1.60;;
55090;SDS011;40985;53.180;5.800;2022-10-22T09:27:53;9.68;;;1.30;;
55090;SDS011;40985;53.180;5.800;2022-10-22T09:30:24;7.68;;;1.65;;
55090;SDS011;40985;53.180;5.800;2022-10-22T09:32:59;10.25;;;1.27;;
55090;SDS011;40985;53.180;5.800;2022-10-22T09:35:32;8.52;;;1.08;;
55090;SDS011;40985;53.180;5.800;2022-10-22T09:38:18;9.70;;;1.58;;
55090;SDS011;40985;53.180;5.800;2022-10-22T09:40:48;15.60;;;2.15;;
55090;SDS011;40985;53.180;5.800;2022-10-22T09:43:16;11.27;;;1.80;;
55090;SDS011;40985;53.180;5.800;2022-10-22T09:45:42;7.95;;;1.55;;
55090;SDS011;40985;53.180;5.800;2022-10-22T09:48:21;9.65;;;1.73;;
55090;SDS011;40985;53.180;5.800;2022-10-22T09:50:56;10.90;;;1.77;;
55090;SDS011;40985;53.180;5.800;2022-10-22T09:53:30;10.32;;;1.42;;
55090;SDS011;40985;53.180;5.800;2022-10-22T09:56:00;8.13;;;1.83;;
55090;SDS011;40985;53.180;5.800;2022-10-22T09:58:42;11.05;;;2.30;;
55090;SDS011;40985;53.180;5.800;2022-10-22T10:01:15;10.10;;;2.22;;
55090;SDS011;40985;53.180;5.800;2022-10-22T10:03:52;10.15;;;1.80;;
55090;SDS011;40985;53.180;5.800;2022-10-22T10:06:21;9.57;;;2.13;;
55090;SDS011;40985;53.180;5.800;2022-10-22T10:08:47;7.13;;;2.00;;
55090;SDS011;40985;53.180;5.800;2022-10-22T10:11:22;10.82;;;2.28;;
55090;SDS011;40985;53.180;5.800;2022-10-22T10:19:26;13.70;;;2.65;;
55090;SDS011;40985;53.180;5.800;2022-10-22T10:22:06;8.38;;;1.70;;
55090;SDS011;40985;53.180;5.800;2022-10-22T10:24:57;12.38;;;1.58;;
55090;SDS011;40985;53.180;5.800;2022-10-22T10:36:17;8.75;;;2.10;;
55090;SDS011;40985;53.180;5.800;2022-10-22T10:39:01;6.28;;;2.28;;
55090;SDS011;40985;53.180;5.800;2022-10-22T10:44:15;12.80;;;3.75;;
55090;SDS011;40985;53.180;5.800;2022-10-22T10:50:04;9.02;;;4.18;;
55090;SDS011;40985;53.180;5.800;2022-10-22T10:53:13;12.73;;;5.10;;
55090;SDS011;40985;53.180;5.800;2022-10-22T11:02:12;13.40;;;4.65;;
55090;SDS011;40985;53.180;5.800;2022-10-22T11:04:19;16.00;;;5.82;;
55090;SDS011;40985;53.180;5.800;2022-10-22T11:07:06;13.02;;;5.93;;
55090;SDS011;40985;53.180;5.800;2022-10-22T11:09:46;15.90;;;6.25;;
55090;SDS011;40985;53.180;5.800;2022-10-22T11:12:23;14.95;;;5.22;;
55090;SDS011;40985;53.180;5.800;2022-10-22T11:17:26;18.05;;;5.40;;
55090;SDS011;40985;53.180;5.800;2022-10-22T11:20:02;8.27;;;3.88;;
55090;SDS011;40985;53.180;5.800;2022-10-22T11:22:35;10.30;;;3.97;;
55090;SDS011;40985;53.180;5.800;2022-10-22T11:25:41;7.95;;;3.42;;
55090;SDS011;40985;53.180;5.800;2022-10-22T11:28:13;9.27;;;3.10;;
55090;SDS011;40985;53.180;5.800;2022-10-22T11:30:45;12.82;;;2.83;;
55090;SDS011;40985;53.180;5.800;2022-10-22T11:33:17;8.57;;;2.70;;
55090;SDS011;40985;53.180;5.800;2022-10-22T11:35:46;10.55;;;3.30;;
55090;SDS011;40985;53.180;5.800;2022-10-22T11:38:15;14.02;;;4.50;;
55090;SDS011;40985;53.180;5.800;2022-10-22T11:41:01;22.85;;;5.80;;
55090;SDS011;40985;53.180;5.800;2022-10-22T11:43:35;17.83;;;4.40;;
55090;SDS011;40985;53.180;5.800;2022-10-22T11:48:42;13.30;;;3.78;;
55090;SDS011;40985;53.180;5.800;2022-10-22T11:59:39;11.93;;;3.63;;
55090;SDS011;40985;53.180;5.800;2022-10-22T12:05:31;12.95;;;2.42;;
55090;SDS011;40985;53.180;5.800;2022-10-22T12:10:35;11.55;;;2.38;;
55090;SDS011;40985;53.180;5.800;2022-10-22T12:13:21;10.02;;;2.28;;
55090;SDS011;40985;53.180;5.800;2022-10-22T12:15:50;8.93;;;1.58;;
55090;SDS011;40985;53.180;5.800;2022-10-22T12:18:18;8.77;;;0.75;;
55090;SDS011;40985;53.180;5.800;2022-10-22T12:20:50;5.97;;;0.52;;
55090;SDS011;40985;53.180;5.800;2022-10-22T12:23:17;8.75;;;0.60;;
55090;SDS011;40985;53.180;5.800;2022-10-22T12:25:43;7.20;;;0.40;;
55090;SDS011;40985;53.180;5.800;2022-10-22T12:28:10;7.15;;;0.40;;
55090;SDS011;40985;53.180;5.800;2022-10-22T12:30:37;8.43;;;0.55;;
55090;SDS011;40985;53.180;5.800;2022-10-22T12:33:04;9.32;;;0.40;;
55090;SDS011;40985;53.180;5.800;2022-10-22T12:35:32;6.43;;;0.52;;
55090;SDS011;40985;53.180;5.800;2022-10-22T12:38:19;13.63;;;0.68;;
55090;SDS011;40985;53.180;5.800;2022-10-22T12:40:47;5.55;;;0.30;;
55090;SDS011;40985;53.180;5.800;2022-10-22T12:43:24;9.63;;;0.80;;
55090;SDS011;40985;53.180;5.800;2022-10-22T12:45:51;8.85;;;0.40;;
55090;SDS011;40985;53.180;5.800;2022-10-22T12:48:20;4.30;;;0.30;;
55090;SDS011;40985;53.180;5.800;2022-10-22T12:50:50;5.78;;;0.30;;
55090;SDS011;40985;53.180;5.800;2022-10-22T12:53:30;7.07;;;0.70;;
55090;SDS011;40985;53.180;5.800;2022-10-22T12:56:01;8.60;;;0.40;;
55090;SDS011;40985;53.180;5.800;2022-10-22T12:58:38;10.13;;;0.85;;
55090;SDS011;40985;53.180;5.800;2022-10-22T13:01:17;8.80;;;0.40;;
55090;SDS011;40985;53.180;5.800;2022-10-22T13:03:47;4.53;;;0.30;;
55090;SDS011;40985;53.180;5.800;2022-10-22T13:08:43;5.78;;;0.30;;
55090;SDS011;40985;53.180;5.800;2022-10-22T13:11:19;9.18;;;0.30;;
55090;SDS011;40985;53.180;5.800;2022-10-22T13:13:44;6.53;;;0.38;;
55090;SDS011;40985;53.180;5.800;2022-10-22T13:16:21;5.53;;;0.60;;
55090;SDS011;40985;53.180;5.800;2022-10-22T13:18:49;2.63;;;0.20;;
55090;SDS011;40985;53.180;5.800;2022-10-22T13:23:54;9.07;;;0.40;;
55090;SDS011;40985;53.180;5.800;2022-10-22T13:26:22;3.10;;;0.30;;
55090;SDS011;40985;53.180;5.800;2022-10-22T13:28:54;5.40;;;0.40;;
55090;SDS011;40985;53.180;5.800;2022-10-22T13:31:25;4.50;;;0.40;;
55090;SDS011;40985;53.180;5.800;2022-10-22T13:34:01;5.75;;;0.20;;
55090;SDS011;40985;53.180;5.800;2022-10-22T13:36:33;6.35;;;0.65;;
55090;SDS011;40985;53.180;5.800;2022-10-22T13:39:00;4.90;;;0.38;;
55090;SDS011;40985;53.180;5.800;2022-10-22T13:41:27;4.63;;;0.20;;
55090;SDS011;40985;53.180;5.800;2022-10-22T13:43:56;2.15;;;0.20;;
55090;SDS011;40985;53.180;5.800;2022-10-22T13:46:22;2.67;;;0.10;;
55090;SDS011;40985;53.180;5.800;2022-10-22T13:48:50;3.67;;;0.10;;
55090;SDS011;40985;53.180;5.800;2022-10-22T13:51:20;3.55;;;0.20;;
55090;SDS011;40985;53.180;5.800;2022-10-22T13:53:49;3.38;;;0.10;;
55090;SDS011;40985;53.180;5.800;2022-10-22T13:56:18;3.40;;;0.20;;
55090;SDS011;40985;53.180;5.800;2022-10-22T13:58:45;4.03;;;0.20;;
55090;SDS011;40985;53.180;5.800;2022-10-22T14:01:19;4.05;;;0.57;;
55090;SDS011;40985;53.180;5.800;2022-10-22T14:03:51;6.13;;;0.68;;
55090;SDS011;40985;53.180;5.800;2022-10-22T14:06:18;7.97;;;0.45;;
55090;SDS011;40985;53.180;5.800;2022-10-22T14:08:47;8.45;;;0.63;;
55090;SDS011;40985;53.180;5.800;2022-10-22T14:11:16;3.65;;;0.13;;
55090;SDS011;40985;53.180;5.800;2022-10-22T14:13:44;3.10;;;0.63;;
55090;SDS011;40985;53.180;5.800;2022-10-22T14:16:18;4.10;;;0.30;;
55090;SDS011;40985;53.180;5.800;2022-10-22T14:18:45;3.72;;;0.22;;
55090;SDS011;40985;53.180;5.800;2022-10-22T14:21:13;6.70;;;0.30;;
55090;SDS011;40985;53.180;5.800;2022-10-22T14:23:41;6.82;;;0.30;;
55090;SDS011;40985;53.180;5.800;2022-10-22T14:26:09;2.92;;;0.30;;
55090;SDS011;40985;53.180;5.800;2022-10-22T14:28:46;5.80;;;0.30;;
55090;SDS011;40985;53.180;5.800;2022-10-22T14:31:12;8.63;;;0.40;;
55090;SDS011;40985;53.180;5.800;2022-10-22T14:33:38;6.47;;;0.40;;
55090;SDS011;40985;53.180;5.800;2022-10-22T14:36:04;11.38;;;1.23;;
55090;SDS011;40985;53.180;5.800;2022-10-22T14:38:30;6.25;;;0.40;;
55090;SDS011;40985;53.180;5.800;2022-10-22T14:40:56;7.22;;;0.57;;
55090;SDS011;40985;53.180;5.800;2022-10-22T14:43:25;7.88;;;0.38;;
55090;SDS011;40985;53.180;5.800;2022-10-22T14:45:52;9.52;;;1.00;;
55090;SDS011;40985;53.180;5.800;2022-10-22T14:48:19;11.80;;;1.10;;
55090;SDS011;40985;53.180;5.800;2022-10-22T14:50:45;11.77;;;0.90;;
55090;SDS011;40985;53.180;5.800;2022-10-22T14:53:12;8.27;;;0.50;;
55090;SDS011;40985;53.180;5.800;2022-10-22T14:55:39;11.95;;;0.93;;
55090;SDS011;40985;53.180;5.800;2022-10-22T14:58:04;12.18;;;0.50;;
55090;SDS011;40985;53.180;5.800;2022-10-22T15:00:30;12.82;;;0.80;;
55090;SDS011;40985;53.180;5.800;2022-10-22T15:02:58;10.10;;;0.70;;
55090;SDS011;40985;53.180;5.800;2022-10-22T15:05:24;8.63;;;0.88;;
55090;SDS011;40985;53.180;5.800;2022-10-22T15:07:50;11.77;;;0.95;;
55090;SDS011;40985;53.180;5.800;2022-10-22T15:10:16;17.60;;;0.85;;
55090;SDS011;40985;53.180;5.800;2022-10-22T15:12:41;13.55;;;1.08;;
55090;SDS011;40985;53.180;5.800;2022-10-22T15:15:07;16.17;;;1.08;;
55090;SDS011;40985;53.180;5.800;2022-10-22T15:17:33;18.65;;;1.05;;
55090;SDS011;40985;53.180;5.800;2022-10-22T15:19:59;13.25;;;0.80;;
55090;SDS011;40985;53.180;5.800;2022-10-22T15:22:28;14.07;;;1.02;;
55090;SDS011;40985;53.180;5.800;2022-10-22T15:24:56;22.20;;;2.35;;
55090;SDS011;40985;53.180;5.800;2022-10-22T15:27:22;7.15;;;0.55;;
55090;SDS011;40985;53.180;5.800;2022-10-22T15:29:48;14.43;;;1.70;;
55090;SDS011;40985;53.180;5.800;2022-10-22T15:32:13;12.25;;;0.98;;
55090;SDS011;40985;53.180;5.800;2022-10-22T15:34:39;10.02;;;0.65;;
55090;SDS011;40985;53.180;5.800;2022-10-22T15:37:06;12.02;;;0.50;;
55090;SDS011;40985;53.180;5.800;2022-10-22T15:39:34;16.10;;;1.00;;
55090;SDS011;40985;53.180;5.800;2022-10-22T15:42:00;12.15;;;1.05;;
55090;SDS011;40985;53.180;5.800;2022-10-22T15:44:27;12.50;;;1.23;;
55090;SDS011;40985;53.180;5.800;2022-10-22T15:46:54;19.33;;;1.02;;
55090;SDS011;40985;53.180;5.800;2022-10-22T15:49:21;16.35;;;0.80;;
55090;SDS011;40985;53.180;5.800;2022-10-22T15:51:47;20.70;;;1.52;;
55090;SDS011;40985;53.180;5.800;2022-10-22T15:54:14;14.30;;;0.90;;
55090;SDS011;40985;53.180;5.800;2022-10-22T15:56:42;15.68;;;1.65;;
55090;SDS011;40985;53.180;5.800;2022-10-22T15:59:09;17.00;;;1.83;;
55090;SDS011;40985;53.180;5.800;2022-10-22T16:01:36;13.93;;;1.10;;
55090;SDS011;40985;53.180;5.800;2022-10-22T16:04:03;20.88;;;2.00;;
55090;SDS011;40985;53.180;5.800;2022-10-22T16:06:32;14.10;;;1.27;;
55090;SDS011;40985;53.180;5.800;2022-10-22T16:09:00;11.98;;;0.80;;
55090;SDS011;40985;53.180;5.800;2022-10-22T16:11:28;14.40;;;1.15;;
55090;SDS011;40985;53.180;5.800;2022-10-22T16:13:54;20.17;;;1.23;;
55090;SDS011;40985;53.180;5.800;2022-10-22T16:16:21;21.77;;;1.95;;
55090;SDS011;40985;53.180;5.800;2022-10-22T16:18:48;23.17;;;1.35;;
55090;SDS011;40985;53.180;5.800;2022-10-22T16:21:15;18.15;;;1.20;;